sensor_id;sensor_type;location;lat;lon;timestamp;temperature;humidity
59977;DHT22;45837;51.076;3.578;2023-04-24T00:01:53;20.40;55.30
59977;DHT22;45837;51.076;3.578;2023-04-24T00:04:19;19.90;55.40
59977;DHT22;45837;51.076;3.578;2023-04-24T00:06:45;20.40;55.50
59977;DHT22;45837;51.076;3.578;2023-04-24T00:09:14;20.40;55.30
59977;DHT22;45837;51.076;3.578;2023-04-24T00:11:41;20.40;55.20
59977;DHT22;45837;51.076;3.578;2023-04-24T00:14:06;20.40;55.40
59977;DHT22;45837;51.076;3.578;2023-04-24T00:16:32;20.40;55.40
59977;DHT22;45837;51.076;3.578;2023-04-24T00:18:58;20.40;55.90
59977;DHT22;45837;51.076;3.578;2023-04-24T00:21:23;20.40;55.50
59977;DHT22;45837;51.076;3.578;2023-04-24T00:23:51;20.40;55.60
59977;DHT22;45837;51.076;3.578;2023-04-24T00:26:16;20.40;55.30
59977;DHT22;45837;51.076;3.578;2023-04-24T00:28:42;20.40;55.60
59977;DHT22;45837;51.076;3.578;2023-04-24T00:31:08;20.40;55.60
59977;DHT22;45837;51.076;3.578;2023-04-24T00:33:34;20.40;55.90
59977;DHT22;45837;51.076;3.578;2023-04-24T00:36:00;20.40;56.00
59977;DHT22;45837;51.076;3.578;2023-04-24T00:38:26;20.40;55.80
59977;DHT22;45837;51.076;3.578;2023-04-24T00:40:51;20.30;56.00
59977;DHT22;45837;51.076;3.578;2023-04-24T00:43:17;20.30;55.40
59977;DHT22;45837;51.076;3.578;2023-04-24T00:45:43;20.30;55.30
59977;DHT22;45837;51.076;3.578;2023-04-24T00:48:08;20.30;55.10
59977;DHT22;45837;51.076;3.578;2023-04-24T00:50:35;20.30;55.00
59977;DHT22;45837;51.076;3.578;2023-04-24T00:53:01;20.30;54.80
59977;DHT22;45837;51.076;3.578;2023-04-24T00:55:27;20.30;55.50
59977;DHT22;45837;51.076;3.578;2023-04-24T00:57:52;20.30;55.00
59977;DHT22;45837;51.076;3.578;2023-04-24T01:00:19;20.30;55.00
59977;DHT22;45837;51.076;3.578;2023-04-24T01:02:45;20.30;54.80
59977;DHT22;45837;51.076;3.578;2023-04-24T01:05:12;20.30;55.60
59977;DHT22;45837;51.076;3.578;2023-04-24T01:07:39;20.30;54.80
59977;DHT22;45837;51.076;3.578;2023-04-24T01:10:06;20.30;55.10
59977;DHT22;45837;51.076;3.578;2023-04-24T01:12:32;20.20;55.20
59977;DHT22;45837;51.076;3.578;2023-04-24T01:14:58;20.20;55.60
59977;DHT22;45837;51.076;3.578;2023-04-24T01:17:23;20.20;55.40
59977;DHT22;45837;51.076;3.578;2023-04-24T01:19:49;20.30;55.90
59977;DHT22;45837;51.076;3.578;2023-04-24T01:22:15;20.20;55.70
59977;DHT22;45837;51.076;3.578;2023-04-24T01:24:41;20.20;55.40
59977;DHT22;45837;51.076;3.578;2023-04-24T01:27:08;20.20;55.00
59977;DHT22;45837;51.076;3.578;2023-04-24T01:29:34;20.20;55.00
59977;DHT22;45837;51.076;3.578;2023-04-24T01:32:00;20.20;54.80
59977;DHT22;45837;51.076;3.578;2023-04-24T01:34:25;20.20;55.30
59977;DHT22;45837;51.076;3.578;2023-04-24T01:36:51;18.60;54.80
59977;DHT22;45837;51.076;3.578;2023-04-24T01:39:18;20.20;54.90
59977;DHT22;45837;51.076;3.578;2023-04-24T01:41:46;20.20;55.20
59977;DHT22;45837;51.076;3.578;2023-04-24T01:44:12;20.20;55.80
59977;DHT22;45837;51.076;3.578;2023-04-24T01:46:37;20.20;55.20
59977;DHT22;45837;51.076;3.578;2023-04-24T01:49:03;20.20;55.40
59977;DHT22;45837;51.076;3.578;2023-04-24T01:51:29;20.20;55.40
59977;DHT22;45837;51.076;3.578;2023-04-24T01:53:56;20.10;55.30
59977;DHT22;45837;51.076;3.578;2023-04-24T01:56:21;20.20;55.80
59977;DHT22;45837;51.076;3.578;2023-04-24T01:58:48;20.20;55.20
59977;DHT22;45837;51.076;3.578;2023-04-24T02:01:20;20.20;54.90
59977;DHT22;45837;51.076;3.578;2023-04-24T02:03:47;20.10;54.60
59977;DHT22;45837;51.076;3.578;2023-04-24T02:06:12;20.10;55.70
59977;DHT22;45837;51.076;3.578;2023-04-24T02:08:38;20.10;55.70
59977;DHT22;45837;51.076;3.578;2023-04-24T02:11:05;20.10;55.60
59977;DHT22;45837;51.076;3.578;2023-04-24T02:13:31;20.10;55.50
59977;DHT22;45837;51.076;3.578;2023-04-24T02:15:58;20.10;56.30
59977;DHT22;45837;51.076;3.578;2023-04-24T02:18:23;17.80;53.90
59977;DHT22;45837;51.076;3.578;2023-04-24T02:20:50;20.10;55.70
59977;DHT22;45837;51.076;3.578;2023-04-24T02:23:15;20.10;54.90
59977;DHT22;45837;51.076;3.578;2023-04-24T02:25:41;20.10;55.30
59977;DHT22;45837;51.076;3.578;2023-04-24T02:28:07;20.10;55.50
59977;DHT22;45837;51.076;3.578;2023-04-24T02:30:33;20.10;55.30
59977;DHT22;45837;51.076;3.578;2023-04-24T02:32:59;20.10;55.20
59977;DHT22;45837;51.076;3.578;2023-04-24T02:35:25;20.00;54.80
59977;DHT22;45837;51.076;3.578;2023-04-24T02:37:51;20.10;55.30
59977;DHT22;45837;51.076;3.578;2023-04-24T02:40:16;20.00;55.30
59977;DHT22;45837;51.076;3.578;2023-04-24T02:42:42;20.00;55.70
59977;DHT22;45837;51.076;3.578;2023-04-24T02:45:08;20.10;56.20
59977;DHT22;45837;51.076;3.578;2023-04-24T02:47:34;20.00;55.00
59977;DHT22;45837;51.076;3.578;2023-04-24T02:50:00;20.00;55.40
59977;DHT22;45837;51.076;3.578;2023-04-24T02:52:26;19.80;54.80
59977;DHT22;45837;51.076;3.578;2023-04-24T02:54:51;20.00;55.80
59977;DHT22;45837;51.076;3.578;2023-04-24T02:57:19;20.10;54.80
59977;DHT22;45837;51.076;3.578;2023-04-24T02:59:44;20.00;55.30
59977;DHT22;45837;51.076;3.578;2023-04-24T03:02:10;20.00;55.00
59977;DHT22;45837;51.076;3.578;2023-04-24T03:04:36;20.00;55.00
59977;DHT22;45837;51.076;3.578;2023-04-24T03:07:02;20.00;54.50
59977;DHT22;45837;51.076;3.578;2023-04-24T03:09:27;20.00;54.90
59977;DHT22;45837;51.076;3.578;2023-04-24T03:11:53;20.00;55.10
59977;DHT22;45837;51.076;3.578;2023-04-24T03:14:19;20.00;55.00
59977;DHT22;45837;51.076;3.578;2023-04-24T03:16:45;20.00;54.90
59977;DHT22;45837;51.076;3.578;2023-04-24T03:19:10;20.00;55.10
59977;DHT22;45837;51.076;3.578;2023-04-24T03:21:45;20.00;54.80
59977;DHT22;45837;51.076;3.578;2023-04-24T03:24:11;20.00;54.90
59977;DHT22;45837;51.076;3.578;2023-04-24T03:26:37;20.00;55.10
59977;DHT22;45837;51.076;3.578;2023-04-24T03:29:19;20.00;54.80
59977;DHT22;45837;51.076;3.578;2023-04-24T03:31:46;19.90;54.50
59977;DHT22;45837;51.076;3.578;2023-04-24T03:34:11;19.90;54.90
59977;DHT22;45837;51.076;3.578;2023-04-24T03:36:37;19.90;54.50
59977;DHT22;45837;51.076;3.578;2023-04-24T03:39:05;19.90;54.70
59977;DHT22;45837;51.076;3.578;2023-04-24T03:41:33;19.90;54.90
59977;DHT22;45837;51.076;3.578;2023-04-24T03:44:19;19.90;54.40
59977;DHT22;45837;51.076;3.578;2023-04-24T03:46:45;19.90;55.20
59977;DHT22;45837;51.076;3.578;2023-04-24T03:49:11;20.00;54.80
59977;DHT22;45837;51.076;3.578;2023-04-24T03:51:41;19.90;54.90
59977;DHT22;45837;51.076;3.578;2023-04-24T03:54:16;19.90;54.90
59977;DHT22;45837;51.076;3.578;2023-04-24T03:56:44;19.90;54.50
59977;DHT22;45837;51.076;3.578;2023-04-24T03:59:10;19.90;54.60
59977;DHT22;45837;51.076;3.578;2023-04-24T04:01:37;19.90;54.60
59977;DHT22;45837;51.076;3.578;2023-04-24T04:04:11;19.90;54.70
59977;DHT22;45837;51.076;3.578;2023-04-24T04:06:37;19.90;54.50
59977;DHT22;45837;51.076;3.578;2023-04-24T04:09:04;19.80;54.30
59977;DHT22;45837;51.076;3.578;2023-04-24T04:11:30;19.80;54.40
59977;DHT22;45837;51.076;3.578;2023-04-24T04:13:56;19.80;54.20
59977;DHT22;45837;51.076;3.578;2023-04-24T04:16:22;19.80;54.20
59977;DHT22;45837;51.076;3.578;2023-04-24T04:18:51;19.80;54.20
59977;DHT22;45837;51.076;3.578;2023-04-24T04:21:17;19.80;54.50
59977;DHT22;45837;51.076;3.578;2023-04-24T04:23:46;19.80;54.10
59977;DHT22;45837;51.076;3.578;2023-04-24T04:26:17;19.80;54.10
59977;DHT22;45837;51.076;3.578;2023-04-24T04:28:58;19.80;54.30
59977;DHT22;45837;51.076;3.578;2023-04-24T04:31:24;19.80;54.10
59977;DHT22;45837;51.076;3.578;2023-04-24T04:33:51;19.80;54.20
59977;DHT22;45837;51.076;3.578;2023-04-24T04:36:17;19.80;54.30
59977;DHT22;45837;51.076;3.578;2023-04-24T04:38:48;19.80;54.40
59977;DHT22;45837;51.076;3.578;2023-04-24T04:41:29;19.80;54.20
59977;DHT22;45837;51.076;3.578;2023-04-24T04:43:55;19.80;54.30
59977;DHT22;45837;51.076;3.578;2023-04-24T04:46:24;19.80;54.30
59977;DHT22;45837;51.076;3.578;2023-04-24T04:49:17;19.80;54.30
59977;DHT22;45837;51.076;3.578;2023-04-24T04:51:44;19.80;54.10
59977;DHT22;45837;51.076;3.578;2023-04-24T04:54:10;19.70;54.50
59977;DHT22;45837;51.076;3.578;2023-04-24T04:56:36;19.70;54.20
59977;DHT22;45837;51.076;3.578;2023-04-24T04:59:02;18.60;54.10
59977;DHT22;45837;51.076;3.578;2023-04-24T05:01:28;19.80;54.10
59977;DHT22;45837;51.076;3.578;2023-04-24T05:03:55;19.80;54.10
59977;DHT22;45837;51.076;3.578;2023-04-24T05:06:20;19.70;54.40
59977;DHT22;45837;51.076;3.578;2023-04-24T05:08:46;19.80;55.00
59977;DHT22;45837;51.076;3.578;2023-04-24T05:11:25;19.80;54.50
59977;DHT22;45837;51.076;3.578;2023-04-24T05:13:51;19.90;55.00
59977;DHT22;45837;51.076;3.578;2023-04-24T05:16:22;19.90;55.00
59977;DHT22;45837;51.076;3.578;2023-04-24T05:18:50;19.90;55.00
59977;DHT22;45837;51.076;3.578;2023-04-24T05:21:20;19.90;55.40
59977;DHT22;45837;51.076;3.578;2023-04-24T05:23:49;19.90;55.80
59977;DHT22;45837;51.076;3.578;2023-04-24T05:26:23;20.00;55.90
59977;DHT22;45837;51.076;3.578;2023-04-24T05:28:49;20.00;55.80
59977;DHT22;45837;51.076;3.578;2023-04-24T05:31:15;20.10;56.10
59977;DHT22;45837;51.076;3.578;2023-04-24T05:33:43;20.20;55.70
59977;DHT22;45837;51.076;3.578;2023-04-24T05:36:09;20.20;55.80
59977;DHT22;45837;51.076;3.578;2023-04-24T05:38:35;20.20;55.80
59977;DHT22;45837;51.076;3.578;2023-04-24T05:41:01;20.30;55.60
59977;DHT22;45837;51.076;3.578;2023-04-24T05:43:26;20.40;55.60
59977;DHT22;45837;51.076;3.578;2023-04-24T05:45:52;20.50;55.40
59977;DHT22;45837;51.076;3.578;2023-04-24T05:48:18;20.60;55.70
59977;DHT22;45837;51.076;3.578;2023-04-24T05:50:44;20.60;55.40
59977;DHT22;45837;51.076;3.578;2023-04-24T05:53:11;20.70;55.10
59977;DHT22;45837;51.076;3.578;2023-04-24T05:55:37;20.80;55.10
59977;DHT22;45837;51.076;3.578;2023-04-24T05:58:02;20.80;54.90
59977;DHT22;45837;51.076;3.578;2023-04-24T06:00:29;20.80;54.90
59977;DHT22;45837;51.076;3.578;2023-04-24T06:03:01;20.90;55.00
59977;DHT22;45837;51.076;3.578;2023-04-24T06:05:29;20.90;54.50
59977;DHT22;45837;51.076;3.578;2023-04-24T06:07:55;21.00;54.40
59977;DHT22;45837;51.076;3.578;2023-04-24T06:10:23;21.00;54.20
59977;DHT22;45837;51.076;3.578;2023-04-24T06:12:49;20.90;54.10
59977;DHT22;45837;51.076;3.578;2023-04-24T06:15:16;21.00;54.10
59977;DHT22;45837;51.076;3.578;2023-04-24T06:17:50;21.00;53.80
59977;DHT22;45837;51.076;3.578;2023-04-24T06:20:17;21.00;53.90
59977;DHT22;45837;51.076;3.578;2023-04-24T06:22:43;21.00;53.90
59977;DHT22;45837;51.076;3.578;2023-04-24T06:25:09;21.00;53.80
59977;DHT22;45837;51.076;3.578;2023-04-24T06:27:36;21.00;53.70
59977;DHT22;45837;51.076;3.578;2023-04-24T06:30:02;21.00;53.90
59977;DHT22;45837;51.076;3.578;2023-04-24T06:32:27;21.00;53.50
59977;DHT22;45837;51.076;3.578;2023-04-24T06:34:53;21.00;53.90
59977;DHT22;45837;51.076;3.578;2023-04-24T06:37:19;21.00;53.90
59977;DHT22;45837;51.076;3.578;2023-04-24T06:39:46;21.00;53.40
59977;DHT22;45837;51.076;3.578;2023-04-24T06:42:11;21.00;53.60
59977;DHT22;45837;51.076;3.578;2023-04-24T06:44:37;21.00;53.70
59977;DHT22;45837;51.076;3.578;2023-04-24T06:47:09;21.00;53.90
59977;DHT22;45837;51.076;3.578;2023-04-24T06:49:36;20.90;54.50
59977;DHT22;45837;51.076;3.578;2023-04-24T06:52:02;20.90;54.00
59977;DHT22;45837;51.076;3.578;2023-04-24T06:54:29;20.90;53.90
59977;DHT22;45837;51.076;3.578;2023-04-24T06:56:55;20.90;53.80
59977;DHT22;45837;51.076;3.578;2023-04-24T06:59:20;20.90;53.90
59977;DHT22;45837;51.076;3.578;2023-04-24T07:01:46;20.80;54.10
59977;DHT22;45837;51.076;3.578;2023-04-24T07:04:12;20.80;54.20
59977;DHT22;45837;51.076;3.578;2023-04-24T07:06:38;20.80;54.20
59977;DHT22;45837;51.076;3.578;2023-04-24T07:09:04;20.80;54.10
59977;DHT22;45837;51.076;3.578;2023-04-24T07:11:30;20.80;54.10
59977;DHT22;45837;51.076;3.578;2023-04-24T07:13:58;20.80;54.10
59977;DHT22;45837;51.076;3.578;2023-04-24T07:16:23;20.70;54.40
59977;DHT22;45837;51.076;3.578;2023-04-24T07:18:49;20.70;54.20
59977;DHT22;45837;51.076;3.578;2023-04-24T07:21:15;20.70;54.20
59977;DHT22;45837;51.076;3.578;2023-04-24T07:23:41;20.70;54.20
59977;DHT22;45837;51.076;3.578;2023-04-24T07:26:06;20.70;54.20
59977;DHT22;45837;51.076;3.578;2023-04-24T07:28:32;20.60;54.20
59977;DHT22;45837;51.076;3.578;2023-04-24T07:30:58;20.60;54.20
59977;DHT22;45837;51.076;3.578;2023-04-24T07:33:25;20.60;54.20
59977;DHT22;45837;51.076;3.578;2023-04-24T07:35:51;20.60;53.90
59977;DHT22;45837;51.076;3.578;2023-04-24T07:38:17;20.60;54.40
59977;DHT22;45837;51.076;3.578;2023-04-24T07:40:45;20.60;54.00
59977;DHT22;45837;51.076;3.578;2023-04-24T07:43:11;20.60;54.40
59977;DHT22;45837;51.076;3.578;2023-04-24T07:45:37;20.50;54.20
59977;DHT22;45837;51.076;3.578;2023-04-24T07:48:03;20.50;54.20
59977;DHT22;45837;51.076;3.578;2023-04-24T07:50:28;20.60;54.00
59977;DHT22;45837;51.076;3.578;2023-04-24T07:52:54;20.50;54.50
59977;DHT22;45837;51.076;3.578;2023-04-24T07:55:20;20.50;54.50
59977;DHT22;45837;51.076;3.578;2023-04-24T07:57:45;20.60;54.20
59977;DHT22;45837;51.076;3.578;2023-04-24T08:00:11;20.60;54.30
59977;DHT22;45837;51.076;3.578;2023-04-24T08:02:38;20.60;54.00
59977;DHT22;45837;51.076;3.578;2023-04-24T08:05:03;20.60;54.30
59977;DHT22;45837;51.076;3.578;2023-04-24T08:07:29;20.60;54.00
59977;DHT22;45837;51.076;3.578;2023-04-24T08:09:55;20.60;54.30
59977;DHT22;45837;51.076;3.578;2023-04-24T08:12:21;20.60;54.20
59977;DHT22;45837;51.076;3.578;2023-04-24T08:14:46;20.60;54.10
59977;DHT22;45837;51.076;3.578;2023-04-24T08:17:12;20.50;54.30
59977;DHT22;45837;51.076;3.578;2023-04-24T08:19:39;20.50;54.30
59977;DHT22;45837;51.076;3.578;2023-04-24T08:22:07;20.50;53.90
59977;DHT22;45837;51.076;3.578;2023-04-24T08:24:33;20.50;54.10
59977;DHT22;45837;51.076;3.578;2023-04-24T08:26:59;20.50;54.10
59977;DHT22;45837;51.076;3.578;2023-04-24T08:29:24;20.60;54.20
59977;DHT22;45837;51.076;3.578;2023-04-24T08:31:50;20.60;53.80
59977;DHT22;45837;51.076;3.578;2023-04-24T08:34:16;20.60;54.00
59977;DHT22;45837;51.076;3.578;2023-04-24T08:36:41;20.60;53.80
59977;DHT22;45837;51.076;3.578;2023-04-24T08:39:07;20.60;54.00
59977;DHT22;45837;51.076;3.578;2023-04-24T08:41:34;20.60;54.20
59977;DHT22;45837;51.076;3.578;2023-04-24T08:44:00;20.60;53.80
59977;DHT22;45837;51.076;3.578;2023-04-24T08:46:26;20.60;53.70
59977;DHT22;45837;51.076;3.578;2023-04-24T08:48:52;20.50;54.20
59977;DHT22;45837;51.076;3.578;2023-04-24T08:51:18;20.50;54.00
59977;DHT22;45837;51.076;3.578;2023-04-24T08:53:46;20.50;53.90
59977;DHT22;45837;51.076;3.578;2023-04-24T08:56:12;20.50;54.00
59977;DHT22;45837;51.076;3.578;2023-04-24T08:58:38;20.50;54.00
59977;DHT22;45837;51.076;3.578;2023-04-24T09:01:04;20.50;54.00
59977;DHT22;45837;51.076;3.578;2023-04-24T09:03:30;20.50;54.30
59977;DHT22;45837;51.076;3.578;2023-04-24T09:05:56;20.50;54.10
59977;DHT22;45837;51.076;3.578;2023-04-24T09:08:24;20.50;54.00
59977;DHT22;45837;51.076;3.578;2023-04-24T09:10:50;20.50;53.80
59977;DHT22;45837;51.076;3.578;2023-04-24T09:13:15;20.40;54.00
59977;DHT22;45837;51.076;3.578;2023-04-24T09:15:42;20.40;54.20
59977;DHT22;45837;51.076;3.578;2023-04-24T09:18:07;20.40;53.60
59977;DHT22;45837;51.076;3.578;2023-04-24T09:20:33;20.40;54.00
59977;DHT22;45837;51.076;3.578;2023-04-24T09:23:01;20.40;54.10
59977;DHT22;45837;51.076;3.578;2023-04-24T09:25:33;20.40;53.90
59977;DHT22;45837;51.076;3.578;2023-04-24T09:28:02;20.40;53.30
59977;DHT22;45837;51.076;3.578;2023-04-24T09:30:28;20.40;53.40
59977;DHT22;45837;51.076;3.578;2023-04-24T09:33:09;20.40;53.70
59977;DHT22;45837;51.076;3.578;2023-04-24T09:35:35;20.40;53.40
59977;DHT22;45837;51.076;3.578;2023-04-24T09:38:01;20.40;53.60
59977;DHT22;45837;51.076;3.578;2023-04-24T09:40:26;20.40;53.70
59977;DHT22;45837;51.076;3.578;2023-04-24T09:42:53;20.40;53.60
59977;DHT22;45837;51.076;3.578;2023-04-24T09:45:19;20.40;53.40
59977;DHT22;45837;51.076;3.578;2023-04-24T09:47:45;20.40;53.50
59977;DHT22;45837;51.076;3.578;2023-04-24T09:52:41;20.40;53.40
59977;DHT22;45837;51.076;3.578;2023-04-24T09:55:11;20.40;53.40
59977;DHT22;45837;51.076;3.578;2023-04-24T09:57:46;20.40;53.30
59977;DHT22;45837;51.076;3.578;2023-04-24T10:00:12;20.40;53.40
59977;DHT22;45837;51.076;3.578;2023-04-24T10:02:38;20.40;53.50
59977;DHT22;45837;51.076;3.578;2023-04-24T10:05:04;20.40;53.80
59977;DHT22;45837;51.076;3.578;2023-04-24T10:07:32;20.40;53.60
59977;DHT22;45837;51.076;3.578;2023-04-24T10:09:58;20.40;53.40
59977;DHT22;45837;51.076;3.578;2023-04-24T10:12:23;20.40;53.60
59977;DHT22;45837;51.076;3.578;2023-04-24T10:14:50;20.40;53.40
59977;DHT22;45837;51.076;3.578;2023-04-24T10:17:16;20.40;53.50
59977;DHT22;45837;51.076;3.578;2023-04-24T10:19:42;20.40;53.40
59977;DHT22;45837;51.076;3.578;2023-04-24T10:22:08;20.40;53.30
59977;DHT22;45837;51.076;3.578;2023-04-24T10:24:34;20.40;53.30
59977;DHT22;45837;51.076;3.578;2023-04-24T10:27:02;20.40;53.60
59977;DHT22;45837;51.076;3.578;2023-04-24T10:29:28;20.40;53.40
59977;DHT22;45837;51.076;3.578;2023-04-24T10:31:56;20.40;53.30
59977;DHT22;45837;51.076;3.578;2023-04-24T10:34:22;20.40;53.60
59977;DHT22;45837;51.076;3.578;2023-04-24T10:36:50;20.40;53.20
59977;DHT22;45837;51.076;3.578;2023-04-24T10:39:16;20.40;53.10
59977;DHT22;45837;51.076;3.578;2023-04-24T10:41:42;20.40;53.30
59977;DHT22;45837;51.076;3.578;2023-04-24T10:44:09;20.40;53.70
59977;DHT22;45837;51.076;3.578;2023-04-24T10:46:38;20.40;54.10
59977;DHT22;45837;51.076;3.578;2023-04-24T10:49:07;20.40;54.60
59977;DHT22;45837;51.076;3.578;2023-04-24T10:56:53;20.40;55.30
59977;DHT22;45837;51.076;3.578;2023-04-24T10:59:25;20.50;55.50
59977;DHT22;45837;51.076;3.578;2023-04-24T11:01:52;20.50;55.10
59977;DHT22;45837;51.076;3.578;2023-04-24T11:04:21;20.50;55.10
59977;DHT22;45837;51.076;3.578;2023-04-24T11:06:54;20.50;55.00
59977;DHT22;45837;51.076;3.578;2023-04-24T11:09:19;20.60;55.30
59977;DHT22;45837;51.076;3.578;2023-04-24T11:11:46;20.50;55.00
59977;DHT22;45837;51.076;3.578;2023-04-24T11:14:15;20.50;55.00
59977;DHT22;45837;51.076;3.578;2023-04-24T11:19:07;20.60;55.00
59977;DHT22;45837;51.076;3.578;2023-04-24T11:27:04;20.60;54.40
59977;DHT22;45837;51.076;3.578;2023-04-24T11:34:40;20.50;54.50
59977;DHT22;45837;51.076;3.578;2023-04-24T11:37:05;20.50;54.60
59977;DHT22;45837;51.076;3.578;2023-04-24T11:39:36;20.50;54.70
59977;DHT22;45837;51.076;3.578;2023-04-24T11:42:02;20.50;55.10
59977;DHT22;45837;51.076;3.578;2023-04-24T11:44:28;20.50;54.40
59977;DHT22;45837;51.076;3.578;2023-04-24T11:46:55;20.50;54.30
59977;DHT22;45837;51.076;3.578;2023-04-24T11:49:21;20.50;54.20
59977;DHT22;45837;51.076;3.578;2023-04-24T11:51:47;20.50;54.40
59977;DHT22;45837;51.076;3.578;2023-04-24T11:54:13;20.50;54.30
59977;DHT22;45837;51.076;3.578;2023-04-24T11:56:38;20.50;54.50
59977;DHT22;45837;51.076;3.578;2023-04-24T11:59:04;20.50;54.60
59977;DHT22;45837;51.076;3.578;2023-04-24T12:01:30;20.50;54.50
59977;DHT22;45837;51.076;3.578;2023-04-24T12:04:07;20.50;54.10
59977;DHT22;45837;51.076;3.578;2023-04-24T12:06:33;20.50;54.40
59977;DHT22;45837;51.076;3.578;2023-04-24T12:08:58;20.50;54.30
59977;DHT22;45837;51.076;3.578;2023-04-24T12:11:24;20.50;54.20
59977;DHT22;45837;51.076;3.578;2023-04-24T12:13:51;20.50;54.00
59977;DHT22;45837;51.076;3.578;2023-04-24T12:16:16;20.50;54.20
59977;DHT22;45837;51.076;3.578;2023-04-24T12:18:43;20.50;54.20
59977;DHT22;45837;51.076;3.578;2023-04-24T12:21:18;20.50;53.90
59977;DHT22;45837;51.076;3.578;2023-04-24T12:23:45;20.40;53.70
59977;DHT22;45837;51.076;3.578;2023-04-24T12:26:19;20.50;53.80
59977;DHT22;45837;51.076;3.578;2023-04-24T12:28:46;20.50;53.60
59977;DHT22;45837;51.076;3.578;2023-04-24T12:31:12;20.50;53.60
59977;DHT22;45837;51.076;3.578;2023-04-24T12:33:37;20.50;54.20
59977;DHT22;45837;51.076;3.578;2023-04-24T12:36:04;20.40;53.70
59977;DHT22;45837;51.076;3.578;2023-04-24T12:38:30;20.50;53.90
59977;DHT22;45837;51.076;3.578;2023-04-24T12:41:03;20.50;54.00
59977;DHT22;45837;51.076;3.578;2023-04-24T12:43:29;20.40;53.30
59977;DHT22;45837;51.076;3.578;2023-04-24T12:45:55;20.40;53.40
59977;DHT22;45837;51.076;3.578;2023-04-24T12:48:21;20.40;53.60
59977;DHT22;45837;51.076;3.578;2023-04-24T12:50:47;20.40;53.40
59977;DHT22;45837;51.076;3.578;2023-04-24T12:53:13;20.40;53.30
59977;DHT22;45837;51.076;3.578;2023-04-24T12:55:39;20.40;53.10
59977;DHT22;45837;51.076;3.578;2023-04-24T12:58:05;20.40;53.20
59977;DHT22;45837;51.076;3.578;2023-04-24T13:00:31;20.40;53.60
59977;DHT22;45837;51.076;3.578;2023-04-24T13:02:57;20.40;53.70
59977;DHT22;45837;51.076;3.578;2023-04-24T13:05:22;20.40;53.70
59977;DHT22;45837;51.076;3.578;2023-04-24T13:07:48;20.40;53.70
59977;DHT22;45837;51.076;3.578;2023-04-24T13:10:14;20.40;53.80
59977;DHT22;45837;51.076;3.578;2023-04-24T13:12:39;20.40;53.40
59977;DHT22;45837;51.076;3.578;2023-04-24T13:15:06;20.40;53.60
59977;DHT22;45837;51.076;3.578;2023-04-24T13:17:32;20.40;53.20
59977;DHT22;45837;51.076;3.578;2023-04-24T13:19:58;20.40;53.30
59977;DHT22;45837;51.076;3.578;2023-04-24T13:22:24;20.40;53.40
59977;DHT22;45837;51.076;3.578;2023-04-24T13:24:50;20.40;53.60
59977;DHT22;45837;51.076;3.578;2023-04-24T13:27:16;20.40;53.10
59977;DHT22;45837;51.076;3.578;2023-04-24T13:29:42;20.40;52.90
59977;DHT22;45837;51.076;3.578;2023-04-24T13:32:07;20.40;52.90
59977;DHT22;45837;51.076;3.578;2023-04-24T13:34:33;20.40;53.10
59977;DHT22;45837;51.076;3.578;2023-04-24T13:37:00;20.40;53.00
59977;DHT22;45837;51.076;3.578;2023-04-24T13:39:26;20.40;52.90
59977;DHT22;45837;51.076;3.578;2023-04-24T13:41:52;20.40;53.10
59977;DHT22;45837;51.076;3.578;2023-04-24T13:44:19;20.40;53.10
59977;DHT22;45837;51.076;3.578;2023-04-24T13:46:45;20.40;53.10
59977;DHT22;45837;51.076;3.578;2023-04-24T13:49:11;20.30;52.80
59977;DHT22;45837;51.076;3.578;2023-04-24T13:51:37;20.40;53.10
59977;DHT22;45837;51.076;3.578;2023-04-24T13:54:03;20.30;53.40
59977;DHT22;45837;51.076;3.578;2023-04-24T13:56:28;20.30;53.40
59977;DHT22;45837;51.076;3.578;2023-04-24T13:58:54;20.30;53.10
59977;DHT22;45837;51.076;3.578;2023-04-24T14:01:20;20.30;53.40
59977;DHT22;45837;51.076;3.578;2023-04-24T14:03:49;20.30;52.90
59977;DHT22;45837;51.076;3.578;2023-04-24T14:06:16;20.30;53.00
59977;DHT22;45837;51.076;3.578;2023-04-24T14:08:41;20.30;53.20
59977;DHT22;45837;51.076;3.578;2023-04-24T14:11:07;20.30;53.20
59977;DHT22;45837;51.076;3.578;2023-04-24T14:13:32;20.30;53.10
59977;DHT22;45837;51.076;3.578;2023-04-24T14:15:58;20.30;53.30
59977;DHT22;45837;51.076;3.578;2023-04-24T14:18:24;20.30;53.40
59977;DHT22;45837;51.076;3.578;2023-04-24T14:20:49;20.30;53.20
59977;DHT22;45837;51.076;3.578;2023-04-24T14:23:15;20.40;53.00
59977;DHT22;45837;51.076;3.578;2023-04-24T14:25:41;20.30;53.00
59977;DHT22;45837;51.076;3.578;2023-04-24T14:28:06;20.30;52.30
59977;DHT22;45837;51.076;3.578;2023-04-24T14:30:32;20.30;52.60
59977;DHT22;45837;51.076;3.578;2023-04-24T14:32:58;20.30;52.00
59977;DHT22;45837;51.076;3.578;2023-04-24T14:35:23;20.30;52.40
59977;DHT22;45837;51.076;3.578;2023-04-24T14:37:49;20.30;51.90
59977;DHT22;45837;51.076;3.578;2023-04-24T14:40:15;20.30;51.70
59977;DHT22;45837;51.076;3.578;2023-04-24T14:42:41;20.30;51.80
59977;DHT22;45837;51.076;3.578;2023-04-24T14:45:06;20.30;51.90
59977;DHT22;45837;51.076;3.578;2023-04-24T14:47:33;20.30;51.90
59977;DHT22;45837;51.076;3.578;2023-04-24T14:49:59;20.30;52.10
59977;DHT22;45837;51.076;3.578;2023-04-24T14:52:25;20.30;52.10
59977;DHT22;45837;51.076;3.578;2023-04-24T14:54:50;20.30;52.50
59977;DHT22;45837;51.076;3.578;2023-04-24T14:57:16;20.30;52.70
59977;DHT22;45837;51.076;3.578;2023-04-24T14:59:41;20.30;53.10
59977;DHT22;45837;51.076;3.578;2023-04-24T15:02:07;20.40;53.50
59977;DHT22;45837;51.076;3.578;2023-04-24T15:04:33;20.40;53.50
59977;DHT22;45837;51.076;3.578;2023-04-24T15:06:58;20.40;53.70
59977;DHT22;45837;51.076;3.578;2023-04-24T15:09:24;20.40;53.80
59977;DHT22;45837;51.076;3.578;2023-04-24T15:11:51;20.40;53.60
59977;DHT22;45837;51.076;3.578;2023-04-24T15:14:18;20.40;53.40
59977;DHT22;45837;51.076;3.578;2023-04-24T15:16:44;20.40;53.50
59977;DHT22;45837;51.076;3.578;2023-04-24T15:19:09;20.40;53.50
59977;DHT22;45837;51.076;3.578;2023-04-24T15:21:36;20.40;53.60
59977;DHT22;45837;51.076;3.578;2023-04-24T15:24:02;20.40;53.50
59977;DHT22;45837;51.076;3.578;2023-04-24T15:26:28;20.40;53.40
59977;DHT22;45837;51.076;3.578;2023-04-24T15:28:54;20.40;53.80
59977;DHT22;45837;51.076;3.578;2023-04-24T15:31:19;20.40;53.60
59977;DHT22;45837;51.076;3.578;2023-04-24T15:33:45;20.40;53.90
59977;DHT22;45837;51.076;3.578;2023-04-24T15:36:11;20.40;54.10
59977;DHT22;45837;51.076;3.578;2023-04-24T15:38:37;20.40;54.10
59977;DHT22;45837;51.076;3.578;2023-04-24T15:41:02;20.40;54.20
59977;DHT22;45837;51.076;3.578;2023-04-24T15:43:28;20.50;54.00
59977;DHT22;45837;51.076;3.578;2023-04-24T15:45:59;20.40;53.70
59977;DHT22;45837;51.076;3.578;2023-04-24T15:48:25;20.50;53.70